Time;durP1;ratioP1;P1;durP2;ratioP2;P2;SDS_P1;SDS_P2;PMS_P1;PMS_P2;Temp;Humidity;BMP_temperature;BMP_pressure;BME280_temperature;BME280_humidity;BME280_pressure;Samples;Min_cycle;Max_cycle;Signal;HPM_P1;HPM_P2
2022/03/03 00:01:32;;;;;;;44.15;26.60;;;2.80;99.90;;;;;;5077594;28;20099;-65
2022/03/03 00:03:58;;;;;;;46.15;27.25;;;2.80;99.90;;;;;;5076606;28;20036;-65
2022/03/03 00:06:23;;;;;;;45.65;26.67;;;2.80;99.90;;;;;;5075200;28;20047;-65
2022/03/03 00:08:49;;;;;;;45.30;26.40;;;2.80;99.90;;;;;;5075085;28;20040;-65
2022/03/03 00:11:14;;;;;;;45.78;27.63;;;2.70;99.90;;;;;;5077367;28;20051;-65
2022/03/03 00:13:40;;;;;;;51.38;28.35;;;2.70;99.90;;;;;;5076935;28;20066;-65
2022/03/03 00:16:05;;;;;;;46.90;26.75;;;2.70;99.90;;;;;;5074624;28;20047;-66
2022/03/03 00:18:31;;;;;;;46.28;26.88;;;2.70;99.90;;;;;;5076562;28;20036;-65
2022/03/03 00:20:56;;;;;;;46.50;27.58;;;2.70;99.90;;;;;;5076743;28;20052;-65
2022/03/03 00:23:22;;;;;;;45.13;27.70;;;2.60;99.90;;;;;;5086294;28;20040;-66
2022/03/03 00:25:47;;;;;;;46.80;27.38;;;2.60;99.90;;;;;;5082019;28;20400;-66
2022/03/03 00:28:14;;;;;;;44.13;26.88;;;2.60;99.90;;;;;;5083368;28;20474;-65
2022/03/03 00:30:39;;;;;;;49.75;27.88;;;2.50;99.90;;;;;;5069877;28;20032;-66
2022/03/03 00:33:05;;;;;;;50.85;28.40;;;2.40;99.90;;;;;;5075697;28;20405;-65
2022/03/03 00:35:30;;;;;;;48.35;28.58;;;2.40;99.90;;;;;;5073188;28;20167;-65
2022/03/03 00:37:56;;;;;;;48.65;28.15;;;2.40;99.90;;;;;;5074646;28;20043;-66
2022/03/03 00:40:21;;;;;;;48.17;27.15;;;2.40;99.90;;;;;;5078305;28;20085;-65
2022/03/03 00:42:47;;;;;;;44.65;27.58;;;2.30;99.90;;;;;;5074219;28;20113;-65
2022/03/03 00:45:12;;;;;;;46.90;27.55;;;2.40;99.90;;;;;;5077861;28;20032;-65
2022/03/03 00:47:38;;;;;;;46.65;27.58;;;2.30;99.90;;;;;;5078893;28;20048;-65
2022/03/03 00:50:05;;;;;;;47.53;27.20;;;2.20;99.90;;;;;;5074804;28;20153;-65
2022/03/03 00:52:30;;;;;;;47.05;27.88;;;2.20;99.90;;;;;;5105803;27;20391;-65
2022/03/03 00:54:56;;;;;;;44.13;27.02;;;2.20;99.90;;;;;;5072759;28;20047;-65
2022/03/03 00:57:21;;;;;;;46.60;26.73;;;2.20;99.90;;;;;;5078595;28;20088;-66
2022/03/03 00:59:47;;;;;;;44.40;26.13;;;2.10;99.90;;;;;;5077502;28;20123;-65
2022/03/03 01:02:12;;;;;;;44.92;27.35;;;2.10;99.90;;;;;;5075788;28;20140;-66
2022/03/03 01:04:38;;;;;;;47.28;28.27;;;2.20;99.90;;;;;;5076051;28;20044;-65
2022/03/03 01:07:05;;;;;;;46.78;27.73;;;2.20;99.90;;;;;;5073956;28;20090;-65
2022/03/03 01:09:30;;;;;;;43.50;26.75;;;2.10;99.90;;;;;;5075855;28;20036;-66
2022/03/03 01:11:56;;;;;;;45.05;25.85;;;2.10;99.90;;;;;;5074707;28;20476;-65
2022/03/03 01:14:23;;;;;;;43.78;25.77;;;2.10;99.90;;;;;;5075825;28;20051;-65
2022/03/03 01:16:50;;;;;;;43.13;25.10;;;2.10;99.90;;;;;;5076807;28;20265;-66
2022/03/03 01:19:16;;;;;;;43.67;26.75;;;2.00;99.90;;;;;;5076416;28;20560;-65
2022/03/03 01:21:42;;;;;;;45.58;26.30;;;2.00;99.90;;;;;;5077346;28;20036;-65
2022/03/03 01:24:08;;;;;;;44.15;26.23;;;2.00;99.90;;;;;;5077606;28;20369;-65
2022/03/03 01:26:33;;;;;;;42.10;24.88;;;1.90;99.90;;;;;;5079404;28;20151;-66
2022/03/03 01:28:59;;;;;;;42.90;25.58;;;1.90;99.90;;;;;;5088590;28;20512;-65
2022/03/03 01:31:24;;;;;;;42.53;25.48;;;1.90;99.90;;;;;;5074186;28;20074;-65
2022/03/03 01:33:50;;;;;;;42.55;25.08;;;1.80;99.90;;;;;;5077878;28;20109;-65
2022/03/03 01:36:15;;;;;;;42.05;25.75;;;1.80;99.90;;;;;;5077620;28;20044;-66
2022/03/03 01:38:41;;;;;;;43.65;25.77;;;1.80;99.90;;;;;;5076814;28;20070;-65
2022/03/03 01:41:08;;;;;;;39.83;24.50;;;1.70;99.90;;;;;;5088380;28;20050;-65
2022/03/03 01:43:34;;;;;;;41.90;24.17;;;1.70;99.90;;;;;;5091155;28;20044;-65
2022/03/03 01:45:59;;;;;;;42.08;25.25;;;1.70;99.90;;;;;;5056507;28;20055;-65
2022/03/03 01:48:25;;;;;;;43.35;25.42;;;1.60;99.90;;;;;;5083208;28;20104;-64
2022/03/03 01:50:52;;;;;;;41.17;24.90;;;1.60;99.90;;;;;;5088468;28;20065;-65
2022/03/03 01:53:18;;;;;;;44.50;25.42;;;1.60;99.90;;;;;;5079117;28;20039;-65
2022/03/03 01:55:44;;;;;;;39.85;25.05;;;1.60;99.90;;;;;;5079670;28;20097;-64
2022/03/03 01:58:09;;;;;;;46.65;24.92;;;1.50;99.90;;;;;;5082605;28;20455;-65
2022/03/03 02:00:35;;;;;;;43.95;25.27;;;1.50;99.90;;;;;;5080033;28;20039;-64
2022/03/03 02:03:01;;;;;;;39.22;23.55;;;1.50;99.90;;;;;;5086399;28;20048;-64
2022/03/03 02:05:28;;;;;;;41.25;24.23;;;1.50;99.90;;;;;;5086805;28;20055;-65
2022/03/03 02:07:53;;;;;;;40.25;24.15;;;1.50;99.90;;;;;;5088739;28;20050;-64
2022/03/03 02:10:19;;;;;;;46.13;26.63;;;1.40;99.90;;;;;;5080725;28;20052;-64
2022/03/03 02:12:45;;;;;;;43.50;26.23;;;1.40;99.90;;;;;;5079939;28;20497;-64
2022/03/03 02:15:20;;;;;;;47.47;26.15;;;1.30;99.90;;;;;;5084122;28;20497;-65
2022/03/03 02:17:46;;;;;;;42.03;23.92;;;1.30;99.90;;;;;;5088724;28;20445;-64
2022/03/03 02:20:27;;;;;;;39.08;24.23;;;1.30;99.90;;;;;;5079001;28;20131;-64
2022/03/03 02:22:54;;;;;;;45.55;25.27;;;1.30;99.90;;;;;;5080030;28;20089;-65
2022/03/03 02:25:21;;;;;;;41.10;24.95;;;1.20;99.90;;;;;;5084408;28;20115;-65
2022/03/03 02:27:47;;;;;;;43.05;24.75;;;1.20;99.90;;;;;;5087471;28;20148;-64
2022/03/03 02:30:14;;;;;;;42.80;24.83;;;1.20;99.90;;;;;;5080086;27;20422;-64
2022/03/03 02:32:40;;;;;;;43.72;26.50;;;1.20;99.90;;;;;;5074535;28;20123;-64
2022/03/03 02:35:07;;;;;;;41.72;24.70;;;1.20;99.90;;;;;;5082553;28;20074;-64
2022/03/03 02:37:38;;;;;;;44.03;24.85;;;1.10;99.90;;;;;;5084745;28;20044;-65
2022/03/03 02:40:07;;;;;;;41.42;24.80;;;1.20;99.90;;;;;;5078832;28;20482;-65
2022/03/03 02:42:32;;;;;;;41.78;25.08;;;1.10;99.90;;;;;;5085436;28;20044;-65
2022/03/03 02:44:58;;;;;;;42.80;25.50;;;1.10;99.90;;;;;;5082004;28;20453;-65
2022/03/03 02:47:24;;;;;;;43.05;26.10;;;1.00;99.90;;;;;;5110593;27;20048;-65
2022/03/03 02:49:49;;;;;;;42.13;24.85;;;1.00;99.90;;;;;;5082055;28;20044;-65
2022/03/03 02:52:15;;;;;;;40.28;23.95;;;1.00;99.90;;;;;;5089379;28;20047;-65
2022/03/03 02:54:40;;;;;;;44.95;25.02;;;1.10;99.90;;;;;;5082359;28;20032;-65
2022/03/03 02:59:51;;;;;;;43.83;24.17;;;1.10;99.90;;;;;;5082245;28;20131;-64
2022/03/03 03:02:16;;;;;;;44.78;26.33;;;1.10;99.90;;;;;;5087819;28;20496;-65
2022/03/03 03:04:42;;;;;;;44.83;26.02;;;1.00;99.90;;;;;;5084485;28;20185;-65
2022/03/03 03:07:08;;;;;;;40.08;24.60;;;1.10;99.90;;;;;;5080360;28;20520;-65
2022/03/03 03:09:33;;;;;;;41.08;23.83;;;1.10;99.90;;;;;;5081352;28;20032;-65
2022/03/03 03:11:59;;;;;;;39.15;23.42;;;1.10;99.90;;;;;;5073572;28;20108;-65
2022/03/03 03:14:24;;;;;;;41.72;24.52;;;1.00;99.90;;;;;;5076305;28;20036;-65
2022/03/03 03:16:50;;;;;;;39.72;24.13;;;1.10;99.90;;;;;;5075618;28;20116;-65
2022/03/03 03:19:16;;;;;;;37.58;23.80;;;1.10;99.90;;;;;;5071019;28;20068;-65
2022/03/03 03:21:41;;;;;;;40.13;24.50;;;1.10;99.90;;;;;;5074889;28;20059;-65
2022/03/03 03:24:07;;;;;;;38.67;24.33;;;1.10;99.90;;;;;;5074673;28;20040;-65
2022/03/03 03:26:32;;;;;;;39.28;23.23;;;1.10;99.90;;;;;;5072394;28;20048;-65
2022/03/03 03:28:58;;;;;;;39.10;22.52;;;1.10;99.90;;;;;;5074254;28;20063;-65
2022/03/03 03:31:24;;;;;;;39.53;23.55;;;1.10;99.90;;;;;;5073245;28;20422;-66
2022/03/03 03:33:49;;;;;;;37.58;24.05;;;1.10;99.90;;;;;;5071195;28;20396;-65
2022/03/03 03:36:15;;;;;;;36.60;23.45;;;1.10;99.90;;;;;;5072245;28;20040;-65
2022/03/03 03:38:40;;;;;;;39.60;22.80;;;1.10;99.90;;;;;;5072127;28;20059;-65
2022/03/03 03:41:06;;;;;;;37.80;21.83;;;1.10;99.90;;;;;;5073184;28;20039;-65
2022/03/03 03:43:32;;;;;;;37.28;22.25;;;1.00;99.90;;;;;;5072721;28;20032;-65
2022/03/03 03:45:57;;;;;;;35.97;22.48;;;1.10;99.90;;;;;;5074909;28;20040;-66
2022/03/03 03:48:23;;;;;;;38.10;22.27;;;1.00;99.90;;;;;;5102141;28;20501;-65
2022/03/03 03:50:49;;;;;;;38.55;21.90;;;0.90;99.90;;;;;;5072755;28;20035;-65
2022/03/03 03:53:15;;;;;;;38.17;23.17;;;0.90;99.90;;;;;;5074437;28;20048;-65
2022/03/03 03:55:40;;;;;;;36.42;22.45;;;0.90;99.90;;;;;;5072078;28;20141;-66
2022/03/03 03:58:06;;;;;;;40.55;23.15;;;0.80;99.90;;;;;;5073777;28;20052;-65
2022/03/03 04:00:32;;;;;;;38.53;22.58;;;0.80;99.90;;;;;;5072533;28;20029;-65
2022/03/03 04:02:57;;;;;;;38.05;22.00;;;0.80;99.90;;;;;;5072282;28;20074;-65
2022/03/03 04:05:23;;;;;;;38.30;23.08;;;0.80;99.90;;;;;;5070901;28;20332;-66
2022/03/03 04:07:49;;;;;;;36.42;22.38;;;0.90;99.90;;;;;;5073984;28;20040;-66
2022/03/03 04:10:14;;;;;;;38.13;22.88;;;0.90;99.90;;;;;;5072400;28;20055;-65
2022/03/03 04:12:40;;;;;;;36.33;23.00;;;0.90;99.90;;;;;;5074890;28;20052;-64
2022/03/03 04:15:07;;;;;;;34.50;22.27;;;0.90;99.90;;;;;;5074050;28;20078;-64
2022/03/03 04:17:33;;;;;;;38.38;22.65;;;0.80;99.90;;;;;;5076847;28;20032;-65
2022/03/03 04:19:58;;;;;;;36.10;22.48;;;0.80;99.90;;;;;;5085650;28;20039;-65
2022/03/03 04:22:24;;;;;;;35.78;22.90;;;0.80;99.90;;;;;;5080198;28;20036;-66
2022/03/03 04:24:50;;;;;;;35.60;22.23;;;0.80;99.90;;;;;;5080451;28;20068;-66
2022/03/03 04:27:16;;;;;;;33.15;21.63;;;0.70;99.90;;;;;;5087920;28;20396;-67
2022/03/03 04:29:42;;;;;;;38.63;22.02;;;0.70;99.90;;;;;;5072893;28;20123;-66
2022/03/03 04:32:08;;;;;;;36.67;23.00;;;0.70;99.90;;;;;;5074235;28;20035;-66
2022/03/03 04:34:33;;;;;;;33.08;21.48;;;0.70;99.90;;;;;;5074771;28;20028;-67
2022/03/03 04:36:59;;;;;;;37.92;22.05;;;0.70;99.90;;;;;;5070636;28;20054;-65
2022/03/03 04:39:24;;;;;;;37.55;22.35;;;0.70;99.90;;;;;;5071921;28;20072;-65
2022/03/03 04:41:50;;;;;;;35.50;21.55;;;0.70;99.90;;;;;;5074865;28;20032;-65
2022/03/03 04:44:16;;;;;;;38.42;21.92;;;0.70;99.90;;;;;;5075995;28;20409;-65
2022/03/03 04:46:41;;;;;;;34.63;22.23;;;0.70;99.90;;;;;;5078214;28;20054;-64
2022/03/03 04:49:07;;;;;;;36.08;21.42;;;0.60;99.90;;;;;;5076162;28;20414;-65
2022/03/03 04:51:36;;;;;;;36.53;23.42;;;0.60;99.90;;;;;;5078060;28;20032;-64
2022/03/03 04:54:07;;;;;;;38.60;21.83;;;0.60;99.90;;;;;;5077886;28;20053;-65
2022/03/03 04:56:33;;;;;;;33.67;20.77;;;0.60;99.90;;;;;;5077219;28;20047;-65
2022/03/03 04:58:58;;;;;;;32.90;20.88;;;0.60;99.90;;;;;;5074499;28;20115;-66
2022/03/03 05:01:24;;;;;;;34.28;21.52;;;0.60;99.90;;;;;;5076752;28;20033;-65
2022/03/03 05:03:50;;;;;;;35.30;21.80;;;0.60;99.90;;;;;;5071722;28;20036;-65
2022/03/03 05:06:17;;;;;;;34.92;21.63;;;0.60;99.90;;;;;;5075892;28;20102;-65
2022/03/03 05:08:43;;;;;;;32.55;20.65;;;0.60;99.90;;;;;;5075583;28;20063;-66
2022/03/03 05:11:09;;;;;;;34.97;21.67;;;0.70;99.90;;;;;;5078720;28;20048;-66
2022/03/03 05:13:35;;;;;;;37.22;22.23;;;0.70;99.90;;;;;;5086106;28;20044;-65
2022/03/03 05:16:02;;;;;;;31.08;20.58;;;0.70;99.90;;;;;;5075119;28;20051;-65
2022/03/03 05:18:28;;;;;;;34.33;21.58;;;0.70;99.90;;;;;;5071768;28;20044;-65
2022/03/03 05:20:53;;;;;;;32.70;21.08;;;0.70;99.90;;;;;;5074876;28;20449;-66
2022/03/03 05:23:19;;;;;;;31.98;19.80;;;0.70;99.90;;;;;;5077668;28;20051;-66
2022/03/03 05:25:44;;;;;;;33.47;20.45;;;0.70;99.90;;;;;;5073281;28;20036;-66
2022/03/03 05:28:16;;;;;;;35.13;20.77;;;0.70;99.90;;;;;;5081604;28;20040;-66
2022/03/03 05:30:42;;;;;;;33.78;21.38;;;0.70;99.90;;;;;;5081792;28;20490;-66
2022/03/03 05:33:07;;;;;;;36.10;21.15;;;0.70;99.90;;;;;;5086751;28;20390;-66
2022/03/03 05:35:33;;;;;;;33.97;19.70;;;0.70;99.90;;;;;;5080960;28;20044;-67
2022/03/03 05:37:59;;;;;;;36.50;20.58;;;0.70;99.90;;;;;;5083022;28;20040;-66
2022/03/03 05:40:25;;;;;;;33.53;20.80;;;0.70;99.90;;;;;;5083667;28;20363;-66
2022/03/03 05:42:52;;;;;;;32.80;20.55;;;0.70;99.90;;;;;;5080293;28;20040;-66
2022/03/03 05:45:18;;;;;;;34.08;20.95;;;0.70;99.90;;;;;;5071093;28;20036;-66
2022/03/03 05:47:45;;;;;;;32.13;20.38;;;0.70;99.90;;;;;;5082638;28;20051;-66
2022/03/03 05:50:11;;;;;;;32.38;21.13;;;0.80;99.90;;;;;;5075167;28;20048;-66
2022/03/03 05:52:37;;;;;;;33.17;21.08;;;0.70;99.90;;;;;;5074679;28;20040;-66
2022/03/03 05:55:03;;;;;;;32.40;19.33;;;0.70;99.90;;;;;;5072070;28;20131;-66
2022/03/03 05:57:35;;;;;;;33.58;20.58;;;0.70;99.90;;;;;;5075399;28;20074;-65
2022/03/03 06:00:33;;;;;;;30.73;20.58;;;0.70;99.90;;;;;;5055872;28;21325;-66
2022/03/03 06:03:01;;;;;;;31.90;19.75;;;0.70;99.90;;;;;;5062068;28;20055;-66
2022/03/03 06:05:27;;;;;;;30.95;19.92;;;0.70;99.90;;;;;;5073671;28;20119;-66
2022/03/03 06:08:02;;;;;;;34.55;20.30;;;0.70;99.90;;;;;;5073485;28;20095;-66
2022/03/03 06:10:31;;;;;;;30.83;19.80;;;0.70;99.90;;;;;;5082756;28;20046;-66
2022/03/03 06:13:23;;;;;;;32.75;20.40;;;0.60;99.90;;;;;;5084723;28;20097;-66
2022/03/03 06:15:50;;;;;;;30.23;19.95;;;0.60;99.90;;;;;;5081547;28;20362;-66
2022/03/03 06:18:17;;;;;;;29.70;19.95;;;0.60;99.90;;;;;;5082536;28;20048;-66
2022/03/03 06:20:44;;;;;;;33.30;20.05;;;0.60;99.90;;;;;;5075187;28;20040;-67
2022/03/03 06:23:10;;;;;;;30.73;19.52;;;0.50;99.90;;;;;;5084438;28;20481;-66
2022/03/03 06:25:37;;;;;;;30.90;19.85;;;0.50;99.90;;;;;;5080745;28;20040;-67
2022/03/03 06:28:03;;;;;;;29.40;20.42;;;0.50;99.90;;;;;;5083216;28;20052;-66
2022/03/03 06:30:31;;;;;;;31.08;19.83;;;0.50;99.90;;;;;;5081789;28;20048;-66
2022/03/03 06:32:56;;;;;;;31.85;19.88;;;0.50;99.90;;;;;;5079607;28;20056;-66
2022/03/03 06:35:22;;;;;;;32.22;19.92;;;0.50;99.90;;;;;;5078633;28;20059;-66
2022/03/03 06:37:47;;;;;;;32.30;19.80;;;0.50;99.90;;;;;;5085937;28;20655;-66
2022/03/03 06:40:13;;;;;;;32.20;20.00;;;0.60;99.90;;;;;;5076818;28;20056;-65
2022/03/03 06:42:39;;;;;;;30.13;19.85;;;0.60;99.90;;;;;;5084314;27;20151;-66
2022/03/03 06:45:05;;;;;;;32.50;19.98;;;0.60;99.90;;;;;;5084676;28;20045;-67
2022/03/03 06:47:30;;;;;;;30.40;19.75;;;0.50;99.90;;;;;;5087993;28;20047;-66
2022/03/03 06:49:56;;;;;;;30.88;19.85;;;0.50;99.90;;;;;;5076419;28;20052;-66
2022/03/03 06:52:26;;;;;;;30.48;19.35;;;0.50;99.90;;;;;;5077951;28;20043;-66
2022/03/03 06:54:53;;;;;;;28.23;19.20;;;0.50;99.90;;;;;;5078187;28;20063;-67
2022/03/03 06:57:21;;;;;;;28.60;19.88;;;0.50;99.90;;;;;;5084200;28;20044;-66
2022/03/03 06:59:46;;;;;;;30.48;20.23;;;0.50;99.90;;;;;;5079860;28;20055;-67
2022/03/03 07:02:13;;;;;;;28.52;18.75;;;0.50;99.90;;;;;;5078411;28;20053;-68
2022/03/03 07:04:40;;;;;;;32.83;20.17;;;0.60;99.90;;;;;;5081962;28;20504;-68
2022/03/03 07:07:05;;;;;;;30.92;19.95;;;0.60;99.90;;;;;;5072442;28;20046;-67
2022/03/03 07:09:33;;;;;;;30.52;20.08;;;0.60;99.90;;;;;;5069308;28;20044;-68
2022/03/03 07:12:00;;;;;;;31.45;20.00;;;0.60;99.90;;;;;;5078731;28;20354;-68
2022/03/03 07:14:26;;;;;;;31.70;19.85;;;0.60;99.90;;;;;;5080350;28;20324;-68
2022/03/03 07:17:02;;;;;;;31.25;19.60;;;0.70;99.90;;;;;;5082035;28;20048;-68
2022/03/03 07:19:37;;;;;;;26.85;18.05;;;0.70;99.90;;;;;;5082469;28;20507;-67
2022/03/03 07:22:09;;;;;;;28.75;19.20;;;0.70;99.90;;;;;;5079601;28;20118;-68
2022/03/03 07:24:51;;;;;;;34.15;20.30;;;0.80;99.90;;;;;;5086101;28;20100;-68
2022/03/03 07:27:19;;;;;;;30.65;18.75;;;0.80;99.90;;;;;;5087341;28;20126;-68
2022/03/03 07:29:49;;;;;;;28.20;18.92;;;0.90;99.90;;;;;;5085710;28;20131;-67
2022/03/03 07:32:18;;;;;;;30.85;19.42;;;0.90;99.90;;;;;;5069374;28;20040;-67
2022/03/03 07:34:55;;;;;;;29.27;19.77;;;0.90;99.90;;;;;;5086783;28;20044;-68
2022/03/03 07:37:30;;;;;;;32.20;19.67;;;1.00;99.90;;;;;;5088754;28;20092;-67
2022/03/03 07:40:04;;;;;;;29.77;18.45;;;1.10;99.90;;;;;;5082506;28;20079;-67
2022/03/03 07:42:29;;;;;;;33.10;20.02;;;1.10;99.90;;;;;;5088792;28;20119;-67
2022/03/03 07:44:55;;;;;;;27.40;18.30;;;1.20;99.90;;;;;;5087023;28;20204;-68
2022/03/03 07:47:21;;;;;;;33.15;19.50;;;1.20;99.90;;;;;;5087811;28;20120;-68
2022/03/03 07:49:47;;;;;;;29.38;19.10;;;1.30;99.90;;;;;;5086952;28;20075;-68
2022/03/03 07:52:13;;;;;;;29.35;19.33;;;1.30;99.90;;;;;;5088542;28;20067;-68
2022/03/03 07:54:38;;;;;;;28.33;18.20;;;1.30;99.90;;;;;;5087912;28;20127;-67
2022/03/03 07:57:10;;;;;;;30.63;20.00;;;1.40;99.90;;;;;;5085431;28;20462;-67
2022/03/03 07:59:37;;;;;;;26.90;19.27;;;1.40;99.90;;;;;;5086498;28;20040;-67
2022/03/03 08:02:05;;;;;;;32.03;19.50;;;1.40;99.90;;;;;;5088600;28;20040;-67
2022/03/03 08:04:32;;;;;;;28.33;19.33;;;1.50;99.90;;;;;;5089525;28;20051;-68
2022/03/03 08:07:08;;;;;;;28.67;19.17;;;1.50;99.90;;;;;;5087843;28;20056;-68
2022/03/03 08:09:34;;;;;;;31.50;19.45;;;1.60;99.90;;;;;;5086402;28;20355;-68
2022/03/03 08:12:05;;;;;;;28.45;18.77;;;1.60;99.90;;;;;;5089412;28;20036;-67
2022/03/03 08:14:32;;;;;;;25.92;17.50;;;1.70;99.90;;;;;;5087115;28;20123;-67
2022/03/03 08:16:57;;;;;;;28.92;18.17;;;1.70;99.90;;;;;;5088128;28;20040;-67
2022/03/03 08:19:23;;;;;;;26.70;18.42;;;1.70;99.90;;;;;;5090667;28;20040;-67
2022/03/03 08:21:49;;;;;;;29.70;18.38;;;1.80;99.90;;;;;;5091017;28;20059;-67
2022/03/03 08:24:15;;;;;;;26.02;17.23;;;1.80;99.90;;;;;;5090549;28;20036;-68
2022/03/03 08:26:43;;;;;;;29.35;18.60;;;1.90;99.90;;;;;;5091993;28;20126;-67
2022/03/03 08:29:09;;;;;;;29.83;18.45;;;1.90;99.90;;;;;;5091263;28;20036;-67
2022/03/03 08:31:39;;;;;;;27.17;17.90;;;2.00;99.90;;;;;;5092544;28;20032;-67
2022/03/03 08:34:14;;;;;;;26.83;17.23;;;2.10;99.90;;;;;;5088655;28;20047;-68
2022/03/03 08:36:45;;;;;;;;;;;2.10;99.90;;;;;;5090387;28;20166;-67
2022/03/03 08:39:15;;;;;;;27.15;17.70;;;2.20;99.90;;;;;;5088400;28;19974;-67
2022/03/03 08:41:42;;;;;;;29.63;18.75;;;2.20;99.90;;;;;;5077996;28;20072;-67
2022/03/03 08:44:10;;;;;;;26.52;17.70;;;2.30;99.90;;;;;;5086578;28;20417;-67
2022/03/03 08:46:38;;;;;;;25.60;16.85;;;2.40;99.90;;;;;;5085783;28;20131;-67
2022/03/03 08:49:06;;;;;;;27.92;17.00;;;2.50;99.90;;;;;;5089879;28;20138;-67
2022/03/03 08:51:32;;;;;;;25.38;17.27;;;2.60;99.90;;;;;;5090638;28;20461;-67
2022/03/03 08:53:58;;;;;;;24.73;17.27;;;2.70;99.90;;;;;;5092113;28;20131;-67
2022/03/03 08:56:23;;;;;;;26.58;17.25;;;2.80;99.90;;;;;;5073025;28;20047;-67
2022/03/03 08:58:50;;;;;;;26.60;16.50;;;2.80;99.90;;;;;;5088015;28;20484;-67
2022/03/03 09:01:17;;;;;;;24.10;16.58;;;2.90;99.90;;;;;;5090536;28;20036;-67
2022/03/03 09:03:43;;;;;;;25.50;16.92;;;3.00;99.90;;;;;;5089174;28;20063;-67
2022/03/03 09:06:16;;;;;;;26.23;16.98;;;3.10;99.90;;;;;;5080719;28;20037;-67
2022/03/03 09:08:41;;;;;;;25.30;16.60;;;3.10;99.90;;;;;;5070256;28;20087;-67
2022/03/03 09:11:07;;;;;;;24.88;16.80;;;3.30;99.90;;;;;;5085530;28;20075;-67
2022/03/03 09:13:33;;;;;;;28.65;16.40;;;3.30;99.90;;;;;;5091309;28;20075;-66
2022/03/03 09:15:59;;;;;;;26.65;16.45;;;3.40;99.90;;;;;;5088281;28;20036;-67
2022/03/03 09:18:24;;;;;;;25.48;16.30;;;3.50;99.90;;;;;;5089693;28;20101;-67
2022/03/03 09:20:50;;;;;;;23.73;16.23;;;3.60;99.90;;;;;;5084797;28;20039;-67
2022/03/03 09:23:16;;;;;;;24.63;16.52;;;3.70;99.90;;;;;;5086015;28;20080;-67
2022/03/03 09:25:41;;;;;;;21.60;15.65;;;3.70;99.90;;;;;;5071164;28;20048;-67
2022/03/03 09:28:08;;;;;;;22.67;15.65;;;3.90;99.90;;;;;;5089720;28;20167;-67
2022/03/03 09:30:34;;;;;;;24.63;15.70;;;4.00;99.90;;;;;;5085297;28;20040;-67
2022/03/03 09:32:59;;;;;;;21.02;14.57;;;4.00;99.90;;;;;;5087840;28;20489;-67
2022/03/03 09:35:28;;;;;;;25.02;15.63;;;4.20;99.90;;;;;;5074148;28;20080;-67
2022/03/03 09:37:54;;;;;;;22.35;14.82;;;4.20;99.90;;;;;;5088949;28;20040;-67
2022/03/03 09:40:20;;;;;;;25.65;15.57;;;4.30;99.90;;;;;;5085181;28;20142;-67
2022/03/03 09:43:04;;;;;;;23.40;15.25;;;4.40;99.90;;;;;;5090430;28;20044;-67
2022/03/03 09:45:31;;;;;;;24.85;16.95;;;4.60;99.90;;;;;;5083234;28;20043;-67
2022/03/03 09:47:58;;;;;;;21.25;15.70;;;4.70;99.90;;;;;;5090600;28;20032;-67
2022/03/03 09:50:25;;;;;;;22.67;16.00;;;4.80;99.90;;;;;;5089962;28;20040;-67
2022/03/03 09:52:52;;;;;;;20.70;15.27;;;4.90;98.90;;;;;;5088318;28;20047;-67
2022/03/03 09:55:18;;;;;;;21.80;15.10;;;5.00;97.90;;;;;;5082549;28;20114;-67
2022/03/03 09:57:44;;;;;;;22.40;15.70;;;5.10;97.50;;;;;;5108611;27;20048;-67
2022/03/03 10:00:12;;;;;;;22.95;15.73;;;5.10;97.60;;;;;;5070079;28;20051;-67
2022/03/03 10:03:10;;;;;;;23.73;15.25;;;5.10;97.60;;;;;;5089348;28;20048;-67
2022/03/03 10:05:47;;;;;;;22.00;15.10;;;5.20;97.40;;;;;;5069873;28;20059;-67
2022/03/03 10:08:17;;;;;;;22.67;16.25;;;5.30;97.70;;;;;;5085201;28;20063;-67
2022/03/03 10:10:49;;;;;;;21.80;15.15;;;5.30;98.00;;;;;;5088549;28;20062;-67
2022/03/03 10:13:16;;;;;;;21.65;15.07;;;5.40;97.40;;;;;;5070856;28;20044;-67
2022/03/03 10:16:00;;;;;;;22.55;15.68;;;5.40;97.80;;;;;;5077649;28;20040;-67
2022/03/03 10:18:26;;;;;;;20.50;14.60;;;5.50;98.40;;;;;;5102347;28;20048;-67
2022/03/03 10:20:58;;;;;;;22.98;15.00;;;5.60;97.80;;;;;;5073777;28;20041;-67
2022/03/03 10:23:33;;;;;;;20.73;14.20;;;5.70;97.50;;;;;;5087899;28;20056;-67
2022/03/03 10:26:01;;;;;;;23.02;15.00;;;5.80;97.20;;;;;;5089218;28;20044;-67
2022/03/03 10:28:31;;;;;;;21.25;14.63;;;5.90;95.00;;;;;;5084946;28;20090;-67
2022/03/03 10:31:05;;;;;;;21.10;14.63;;;6.00;93.80;;;;;;5083484;28;20054;-67
2022/03/03 10:33:38;;;;;;;19.80;13.75;;;6.00;94.20;;;;;;5087254;28;20044;-67
2022/03/03 10:36:09;;;;;;;20.20;14.38;;;6.10;94.90;;;;;;5088239;28;20048;-67
2022/03/03 10:38:59;;;;;;;18.55;13.30;;;6.20;95.20;;;;;;5087001;28;20488;-67
2022/03/03 10:41:36;;;;;;;20.08;13.68;;;6.20;91.50;;;;;;5082334;28;20072;-67
2022/03/03 10:44:07;;;;;;;16.25;11.85;;;6.30;91.70;;;;;;5070466;28;20101;-67
2022/03/03 10:46:34;;;;;;;17.95;13.05;;;6.30;89.40;;;;;;5069446;28;20106;-67
2022/03/03 10:49:15;;;;;;;19.38;13.25;;;6.30;89.70;;;;;;5068516;28;20045;-67
2022/03/03 10:51:41;;;;;;;20.45;12.85;;;6.40;90.10;;;;;;5074160;28;20079;-67
2022/03/03 10:54:09;;;;;;;18.27;12.65;;;6.50;90.40;;;;;;5068696;28;20083;-67
2022/03/03 10:56:43;;;;;;;20.50;13.20;;;6.50;89.50;;;;;;5068307;28;20033;-67
2022/03/03 10:59:17;;;;;;;23.40;13.70;;;6.60;86.70;;;;;;5070192;28;20448;-67
2022/03/03 11:01:43;;;;;;;18.02;13.20;;;6.60;87.80;;;;;;5078118;28;20048;-67
2022/03/03 11:04:17;;;;;;;18.40;13.48;;;6.70;86.40;;;;;;5076917;28;20119;-67
2022/03/03 11:06:43;;;;;;;22.13;14.32;;;6.70;86.80;;;;;;5086990;28;20047;-67
2022/03/03 11:09:09;;;;;;;17.23;13.00;;;6.80;88.40;;;;;;5082663;28;20040;-67
2022/03/03 11:11:36;;;;;;;19.88;13.25;;;6.80;88.00;;;;;;5087766;28;20185;-68
2022/03/03 11:14:02;;;;;;;18.13;11.82;;;6.90;86.20;;;;;;5088495;28;20040;-67
2022/03/03 11:16:27;;;;;;;16.08;11.82;;;6.90;83.60;;;;;;5077394;28;20074;-67
2022/03/03 11:18:54;;;;;;;16.17;11.73;;;7.00;83.10;;;;;;5071851;28;20043;-67
2022/03/03 11:21:20;;;;;;;17.25;12.00;;;7.10;83.20;;;;;;5068751;28;20053;-68
2022/03/03 11:23:51;;;;;;;17.90;12.20;;;7.10;82.40;;;;;;5076973;28;20244;-67
2022/03/03 11:26:26;;;;;;;18.13;12.02;;;7.10;80.10;;;;;;5070227;28;20515;-67
2022/03/03 11:29:10;;;;;;;16.65;11.38;;;7.20;80.10;;;;;;5081301;28;20127;-67
2022/03/03 11:31:37;;;;;;;17.73;12.43;;;7.30;78.70;;;;;;5067713;28;20045;-67
2022/03/03 11:34:23;;;;;;;17.45;11.98;;;7.30;79.40;;;;;;5068860;28;20052;-67
2022/03/03 11:36:58;;;;;;;18.40;11.80;;;7.40;77.40;;;;;;5086996;28;20040;-67
2022/03/03 11:39:34;;;;;;;15.18;11.15;;;7.50;77.10;;;;;;5066469;28;20128;-67
2022/03/03 11:42:24;;;;;;;15.65;11.27;;;7.50;76.80;;;;;;5067967;28;20078;-67
2022/03/03 11:44:52;;;;;;;15.55;11.55;;;7.50;77.10;;;;;;5066177;28;20474;-67
2022/03/03 11:47:30;;;;;;;16.73;11.65;;;7.60;75.80;;;;;;5068362;28;20070;-67
2022/03/03 11:49:59;;;;;;;17.33;12.10;;;7.60;75.90;;;;;;5068156;28;20044;-67
2022/03/03 11:52:25;;;;;;;16.08;11.40;;;7.70;72.40;;;;;;5078424;28;20127;-67
2022/03/03 11:54:56;;;;;;;16.20;11.95;;;7.70;75.40;;;;;;5086381;28;20123;-67
2022/03/03 11:57:27;;;;;;;17.95;11.85;;;7.80;74.10;;;;;;5087062;28;20048;-67
2022/03/03 11:59:58;;;;;;;17.63;12.27;;;7.90;73.70;;;;;;5068983;28;20048;-67
2022/03/03 12:02:29;;;;;;;17.20;12.25;;;7.90;74.20;;;;;;5067971;28;20051;-67
2022/03/03 12:05:30;;;;;;;17.92;11.98;;;7.90;74.40;;;;;;5067093;28;20144;-67
2022/03/03 12:08:01;;;;;;;17.08;11.70;;;8.00;71.60;;;;;;5067606;28;20079;-67
2022/03/03 12:10:27;;;;;;;17.52;12.25;;;8.10;73.10;;;;;;5080714;28;20053;-67
2022/03/03 12:13:24;;;;;;;21.15;13.10;;;8.10;73.20;;;;;;5065780;28;20132;-67
2022/03/03 12:16:11;;;;;;;17.90;12.00;;;8.10;73.70;;;;;;5073833;28;20067;-67
2022/03/03 12:18:37;;;;;;;17.27;12.02;;;8.20;73.00;;;;;;5080854;28;20182;-67
2022/03/03 12:21:21;;;;;;;16.75;11.80;;;8.20;73.10;;;;;;5075683;28;20135;-67
2022/03/03 12:23:47;;;;;;;17.60;12.30;;;8.20;72.50;;;;;;5085506;28;20076;-67
2022/03/03 12:26:12;;;;;;;16.52;12.13;;;8.30;72.90;;;;;;5083337;28;20045;-67
2022/03/03 12:28:47;;;;;;;15.20;11.50;;;8.30;72.80;;;;;;5065707;28;20427;-67
2022/03/03 12:31:24;;;;;;;16.55;12.68;;;8.30;73.50;;;;;;5068129;28;20053;-67
2022/03/03 12:33:57;;;;;;;16.67;11.32;;;8.40;71.40;;;;;;5066943;28;20049;-67
2022/03/03 12:36:22;;;;;;;15.88;11.15;;;8.40;70.70;;;;;;5070517;28;20052;-67
2022/03/03 12:38:48;;;;;;;14.52;10.90;;;8.40;70.50;;;;;;5086292;28;20153;-68
2022/03/03 12:41:14;;;;;;;17.00;11.85;;;8.50;70.50;;;;;;5087459;28;20048;-67
2022/03/03 12:43:41;;;;;;;16.35;11.32;;;8.50;69.60;;;;;;5084372;28;20558;-67
2022/03/03 12:46:07;;;;;;;16.30;10.38;;;8.60;69.90;;;;;;5076668;28;20051;-67